createdAt,value
2019-06-08T00:02:30.288Z,22.42
2019-06-08T00:05:01.293Z,27.30
2019-06-08T00:07:31.745Z,19.87
2019-06-08T00:10:02.292Z,27.65
2019-06-08T00:12:32.734Z,23.45
2019-06-08T00:15:03.132Z,27.42
2019-06-08T00:17:38.458Z,23.25
2019-06-08T00:20:06.010Z,23.50
2019-06-08T00:22:36.557Z,25.77
2019-06-08T00:25:07.134Z,25.32
2019-06-08T00:27:37.700Z,24.00
2019-06-08T00:30:08.898Z,24.98
2019-06-08T00:32:39.462Z,24.10
2019-06-08T00:35:10.406Z,25.85
2019-06-08T00:37:40.774Z,27.05
2019-06-08T00:40:11.686Z,29.40
2019-06-08T00:42:42.578Z,28.95
2019-06-08T00:45:15.332Z,27.98
2019-06-08T00:47:47.873Z,32.13
2019-06-08T00:50:18.791Z,25.92
2019-06-08T00:52:49.502Z,27.80
2019-06-08T00:55:19.961Z,25.77
2019-06-08T00:57:50.437Z,28.87
2019-06-08T01:00:22.573Z,31.57
2019-06-08T01:02:53.178Z,31.55
2019-06-08T01:05:24.210Z,33.30
2019-06-08T01:07:54.723Z,33.63
2019-06-08T01:10:25.664Z,34.35
2019-06-08T01:12:58.809Z,32.50
2019-06-08T01:15:33.808Z,34.15
2019-06-08T01:18:03.911Z,32.67
2019-06-08T01:20:33.438Z,36.75
2019-06-08T01:23:03.967Z,41.45
2019-06-08T01:25:34.552Z,34.78
2019-06-08T01:28:04.996Z,36.20
2019-06-08T01:30:35.451Z,67.45
2019-06-08T01:33:05.939Z,42.55
2019-06-08T01:35:46.636Z,41.77
2019-06-08T01:38:15.106Z,41.18
2019-06-08T01:40:45.553Z,41.28
2019-06-08T01:43:15.968Z,41.33
2019-06-08T01:45:46.340Z,43.83
2019-06-08T01:48:20.371Z,44.80
2019-06-08T01:50:50.213Z,42.90
2019-06-08T01:53:20.831Z,43.28
2019-06-08T01:55:51.320Z,40.55
2019-06-08T01:58:23.269Z,40.25
2019-06-08T02:00:55.592Z,40.40
2019-06-08T02:03:26.396Z,38.28
2019-06-08T02:05:57.516Z,37.33
2019-06-08T02:08:28.637Z,38.55
2019-06-08T02:10:59.290Z,35.13
2019-06-08T02:13:30.788Z,34.10
2019-06-08T02:16:01.484Z,38.25
2019-06-08T02:18:41.368Z,31.97
2019-06-08T02:21:04.063Z,30.75
2019-06-08T02:23:35.166Z,44.30
2019-06-08T02:26:05.970Z,31.52
2019-06-08T02:28:36.424Z,33.45
2019-06-08T02:31:13.518Z,33.70
2019-06-08T02:33:44.030Z,32.90
2019-06-08T02:36:14.536Z,36.15
2019-06-08T02:38:45.011Z,31.27
2019-06-08T02:41:15.448Z,29.05
2019-06-08T02:43:46.128Z,28.32
2019-06-08T02:46:16.585Z,28.10
2019-06-08T02:49:02.781Z,25.00
2019-06-08T02:51:20.544Z,24.55
2019-06-08T02:53:51.590Z,25.15
2019-06-08T02:56:23.948Z,24.70
2019-06-08T02:58:57.575Z,33.40
2019-06-08T03:01:31.430Z,23.62
2019-06-08T03:04:02.284Z,25.92
2019-06-08T03:06:34.739Z,26.42
2019-06-08T03:09:07.877Z,23.20
2019-06-08T03:11:39.202Z,24.10
2019-06-08T03:14:10.340Z,25.40
2019-06-08T03:16:41.596Z,25.02
2019-06-08T03:19:21.660Z,22.98
2019-06-08T03:21:45.059Z,22.75
2019-06-08T03:24:15.529Z,24.10
2019-06-08T03:26:47.785Z,24.63
2019-06-08T03:29:18.294Z,25.88
2019-06-08T03:31:55.784Z,23.15
2019-06-08T03:34:21.073Z,24.07
2019-06-08T03:36:56.880Z,24.32
2019-06-08T03:39:23.660Z,22.60
2019-06-08T03:41:54.137Z,22.25
2019-06-08T03:44:24.866Z,22.07
2019-06-08T03:46:55.359Z,19.32
2019-06-08T03:49:41.383Z,23.42
2019-06-08T03:51:59.533Z,19.52
2019-06-08T03:54:30.061Z,20.12
2019-06-08T03:57:00.623Z,19.50
2019-06-08T03:59:31.850Z,19.05
2019-06-08T04:02:02.398Z,19.87
2019-06-08T04:04:32.834Z,18.60
2019-06-08T04:07:03.995Z,19.45
2019-06-08T04:09:34.514Z,20.17
2019-06-08T04:12:06.576Z,21.93
2019-06-08T04:14:37.860Z,26.12
2019-06-08T04:17:08.347Z,21.90
2019-06-08T04:19:39.855Z,20.62
2019-06-08T04:22:10.540Z,22.37
2019-06-08T04:24:42.448Z,22.98
2019-06-08T04:27:13.098Z,19.90
2019-06-08T04:29:44.064Z,19.50
2019-06-08T04:32:15.713Z,19.90
2019-06-08T04:34:47.537Z,19.85
2019-06-08T04:37:18.319Z,20.27
2019-06-08T04:39:50.761Z,21.45
2019-06-08T04:42:20.847Z,21.42
2019-06-08T04:44:51.281Z,20.82
2019-06-08T04:47:21.760Z,20.60
2019-06-08T04:49:52.215Z,20.23
2019-06-08T04:52:22.976Z,21.17
2019-06-08T04:55:04.422Z,21.48
2019-06-08T04:57:34.901Z,21.52
2019-06-08T05:00:12.211Z,31.10
2019-06-08T05:02:41.511Z,23.73
2019-06-08T05:05:11.809Z,23.73
2019-06-08T05:07:43.776Z,20.65
2019-06-08T05:10:15.546Z,31.48
2019-06-08T05:12:47.701Z,30.00
2019-06-08T05:15:18.489Z,25.40
2019-06-08T05:17:49.646Z,26.00
2019-06-08T05:20:34.984Z,27.77
2019-06-08T05:22:52.748Z,33.45
2019-06-08T05:25:23.447Z,24.87
2019-06-08T05:27:53.835Z,25.75
2019-06-08T05:30:24.381Z,34.38
2019-06-08T05:32:54.833Z,26.42
2019-06-08T05:35:25.286Z,24.63
2019-06-08T05:37:55.746Z,29.15
2019-06-08T05:40:26.344Z,33.80
2019-06-08T05:42:56.849Z,31.33
2019-06-08T05:45:27.466Z,37.98
2019-06-08T05:47:57.940Z,29.20
2019-06-08T05:50:28.365Z,27.55
2019-06-08T05:52:58.872Z,21.40
2019-06-08T05:55:29.296Z,25.50
2019-06-08T05:57:59.772Z,24.70
2019-06-08T06:00:30.727Z,22.27
2019-06-08T06:03:01.387Z,24.15
2019-06-08T06:05:31.848Z,21.15
2019-06-08T06:08:02.866Z,23.40
2019-06-08T06:10:33.457Z,18.95
2019-06-08T06:13:03.907Z,21.15
2019-06-08T06:15:36.148Z,20.08
2019-06-08T06:18:06.604Z,19.85
2019-06-08T06:20:37.110Z,18.02
2019-06-08T06:23:07.667Z,14.83
2019-06-08T06:25:38.170Z,23.85
2019-06-08T06:28:08.602Z,15.10
2019-06-08T06:30:39.073Z,15.03
2019-06-08T06:33:09.593Z,15.20
2019-06-08T06:35:40.030Z,12.58
2019-06-08T06:38:10.530Z,13.08
2019-06-08T06:40:41.909Z,11.53
2019-06-08T06:43:12.577Z,13.53
2019-06-08T06:45:44.054Z,12.78
2019-06-08T06:48:14.907Z,14.70
2019-06-08T06:50:46.295Z,19.12
2019-06-08T06:53:17.301Z,14.28
2019-06-08T06:55:49.038Z,18.82
2019-06-08T06:58:19.584Z,16.60
2019-06-08T07:00:51.305Z,13.35
2019-06-08T07:03:22.426Z,10.95
2019-06-08T07:05:54.049Z,12.85
2019-06-08T07:08:25.087Z,17.90
2019-06-08T07:10:55.630Z,11.38
2019-06-08T07:13:26.089Z,13.18
2019-06-08T07:15:58.275Z,12.07
2019-06-08T07:18:28.536Z,14.30
2019-06-08T07:20:59.079Z,14.05
2019-06-08T07:23:29.739Z,12.50
2019-06-08T07:26:00.113Z,11.65
2019-06-08T07:28:30.639Z,12.37
2019-06-08T07:31:01.132Z,16.10
2019-06-08T07:33:46.746Z,26.73
2019-06-08T07:36:17.704Z,16.65
2019-06-08T07:38:48.663Z,26.80
2019-06-08T07:41:20.776Z,22.67
2019-06-08T07:43:52.261Z,21.68
2019-06-08T07:46:22.646Z,24.67
2019-06-08T07:48:54.112Z,22.87
2019-06-08T07:51:25.147Z,22.45
2019-06-08T07:53:55.959Z,19.60
2019-06-08T07:56:26.599Z,18.60
2019-06-08T07:58:57.506Z,22.95
2019-06-08T08:01:36.182Z,17.73
2019-06-08T08:04:01.258Z,22.87
2019-06-08T08:06:31.709Z,16.50
2019-06-08T08:09:02.596Z,20.95
2019-06-08T08:11:33.021Z,13.50
2019-06-08T08:14:03.616Z,16.97
2019-06-08T08:16:34.199Z,19.52
2019-06-08T08:19:05.273Z,13.48
2019-06-08T08:21:37.948Z,16.05
2019-06-08T08:24:07.832Z,18.10
2019-06-08T08:26:39.129Z,15.75
2019-06-08T08:29:09.816Z,18.90
2019-06-08T08:31:40.437Z,19.98
2019-06-08T08:34:10.881Z,13.80
2019-06-08T08:36:41.240Z,15.00
2019-06-08T08:39:11.722Z,16.62
2019-06-08T08:41:43.459Z,13.25
2019-06-08T08:44:13.984Z,14.65
2019-06-08T08:46:44.469Z,14.23
2019-06-08T08:49:18.060Z,16.05
2019-06-08T08:51:47.966Z,13.80
2019-06-08T08:54:18.486Z,13.22
2019-06-08T08:56:52.256Z,14.47
2019-06-08T08:59:21.737Z,15.08
2019-06-08T09:01:52.919Z,14.73
2019-06-08T09:04:23.717Z,14.90
2019-06-08T09:06:55.337Z,15.70
2019-06-08T09:09:28.691Z,17.87
2019-06-08T09:12:00.958Z,19.35
2019-06-08T09:14:30.555Z,20.92
2019-06-08T09:17:02.187Z,20.65
2019-06-08T09:19:33.212Z,17.07
2019-06-08T09:22:04.170Z,17.55
2019-06-08T09:24:34.877Z,18.48
2019-06-08T09:27:07.814Z,20.23
2019-06-08T09:29:38.888Z,13.75
2019-06-08T09:32:09.721Z,16.27
2019-06-08T09:34:40.297Z,14.15
2019-06-08T09:37:10.807Z,12.30
2019-06-08T09:39:41.262Z,13.30
2019-06-08T09:42:11.830Z,14.87
2019-06-08T09:44:42.596Z,11.38
2019-06-08T09:47:13.085Z,15.58
2019-06-08T09:49:43.565Z,15.32
2019-06-08T09:52:14.105Z,10.10
2019-06-08T09:54:44.522Z,14.23
2019-06-08T09:57:15.322Z,10.88
2019-06-08T09:59:48.087Z,11.40
2019-06-08T10:02:18.530Z,11.20
2019-06-08T10:04:49.243Z,10.88
2019-06-08T10:07:19.677Z,13.50
2019-06-08T10:09:50.296Z,11.00
2019-06-08T10:12:20.853Z,9.43
2019-06-08T10:14:51.327Z,11.12
2019-06-08T10:17:21.777Z,10.78
2019-06-08T10:19:52.183Z,10.53
2019-06-08T10:22:22.593Z,11.22
2019-06-08T10:24:53.151Z,10.13
2019-06-08T10:27:25.240Z,11.50
2019-06-08T10:29:58.634Z,10.55
2019-06-08T10:32:28.227Z,14.73
2019-06-08T10:35:00.338Z,11.45
2019-06-08T10:37:31.180Z,14.35
2019-06-08T10:40:03.519Z,11.53
2019-06-08T10:42:33.766Z,10.82
2019-06-08T10:45:09.572Z,12.07
2019-06-08T10:47:37.879Z,12.13
2019-06-08T10:50:14.724Z,12.35
2019-06-08T10:52:41.848Z,12.10
2019-06-08T10:55:13.668Z,11.40
2019-06-08T10:57:44.168Z,10.88
2019-06-08T11:00:23.637Z,13.05
2019-06-08T11:02:52.195Z,11.68
2019-06-08T11:05:22.670Z,11.88
2019-06-08T11:07:53.170Z,11.60
2019-06-08T11:10:24.033Z,13.05
2019-06-08T11:12:54.532Z,13.40
2019-06-08T11:15:29.187Z,14.53
2019-06-08T11:18:01.325Z,14.03
2019-06-08T11:20:30.184Z,16.67
2019-06-08T11:23:02.460Z,15.68
2019-06-08T11:25:33.998Z,16.95
2019-06-08T11:28:07.927Z,19.62
2019-06-08T11:30:38.277Z,19.90
2019-06-08T11:33:12.473Z,15.53
2019-06-08T11:35:42.997Z,15.78
2019-06-08T11:38:13.509Z,15.98
2019-06-08T11:40:43.939Z,18.07
2019-06-08T11:43:14.266Z,13.78
2019-06-08T11:45:44.749Z,18.15
2019-06-08T11:48:15.253Z,20.52
2019-06-08T11:50:48.859Z,12.75
2019-06-08T11:53:18.523Z,14.18
2019-06-08T11:55:51.171Z,14.43
2019-06-08T11:58:23.114Z,12.58
2019-06-08T12:01:01.865Z,14.65
2019-06-08T12:03:32.751Z,14.40
2019-06-08T12:06:04.246Z,11.53
2019-06-08T12:08:34.707Z,15.32
2019-06-08T12:11:09.728Z,12.28
2019-06-08T12:13:37.834Z,8.73
2019-06-08T12:16:14.925Z,11.85
2019-06-08T12:18:40.523Z,9.00
2019-06-08T12:21:13.334Z,9.85
2019-06-08T12:23:44.707Z,9.33
2019-06-08T12:26:15.271Z,7.37
2019-06-08T12:28:45.713Z,7.45
2019-06-08T12:31:21.429Z,7.67
2019-06-08T12:33:48.769Z,9.65
2019-06-08T12:36:20.532Z,6.62
2019-06-08T12:38:51.447Z,11.40
2019-06-08T12:41:21.904Z,12.20
2019-06-08T12:43:52.408Z,8.70
2019-06-08T12:46:22.869Z,9.83
2019-06-08T12:48:53.284Z,7.42
2019-06-08T12:51:23.714Z,10.10
2019-06-08T12:53:54.220Z,10.32
2019-06-08T12:56:24.680Z,8.10
2019-06-08T12:58:55.036Z,6.75
2019-06-08T13:01:27.973Z,6.35
2019-06-08T13:03:58.158Z,7.67
2019-06-08T13:06:29.074Z,4.87
2019-06-08T13:08:59.393Z,6.22
2019-06-08T13:11:29.983Z,4.67
2019-06-08T13:14:00.461Z,4.20
2019-06-08T13:16:30.981Z,7.90
2019-06-08T13:19:01.385Z,3.72
2019-06-08T13:21:35.403Z,3.83
2019-06-08T13:24:03.966Z,6.35
2019-06-08T13:26:34.376Z,5.67
2019-06-08T13:29:04.862Z,6.72
2019-06-08T13:31:35.415Z,4.17
2019-06-08T13:34:07.778Z,6.08
2019-06-08T13:36:40.279Z,3.10
2019-06-08T13:39:11.613Z,2.30
2019-06-08T13:41:42.389Z,4.37
2019-06-08T13:44:13.512Z,3.42
2019-06-08T13:46:44.004Z,4.22
2019-06-08T13:49:14.410Z,3.85
2019-06-08T13:51:44.998Z,3.02
2019-06-08T13:54:19.173Z,3.22
2019-06-08T13:56:50.596Z,2.17
2019-06-08T13:59:25.800Z,5.20
2019-06-08T14:01:53.095Z,2.70
2019-06-08T14:04:23.799Z,4.42
2019-06-08T14:06:54.571Z,2.87
2019-06-08T14:09:25.415Z,1.52
2019-06-08T14:11:57.784Z,2.65
2019-06-08T14:14:28.990Z,3.65
2019-06-08T14:16:59.699Z,4.05
2019-06-08T14:19:31.608Z,5.75
2019-06-08T14:22:02.586Z,5.45
2019-06-08T14:24:34.750Z,2.12
2019-06-08T14:27:05.380Z,3.62
2019-06-08T14:29:35.792Z,3.27
2019-06-08T14:32:07.854Z,2.17
2019-06-08T14:34:38.830Z,1.67
2019-06-08T14:37:09.670Z,1.90
2019-06-08T14:39:41.805Z,2.47
2019-06-08T14:42:12.184Z,4.85
2019-06-08T14:44:42.625Z,6.83
2019-06-08T14:47:16.284Z,2.17
2019-06-08T14:49:48.792Z,4.83
2019-06-08T14:52:22.226Z,1.82
2019-06-08T14:54:51.906Z,6.97
2019-06-08T14:57:23.370Z,3.25
2019-06-08T14:59:56.302Z,5.15
2019-06-08T15:02:28.531Z,4.78
2019-06-08T15:04:58.147Z,5.72
2019-06-08T15:07:31.352Z,3.95
2019-06-08T15:10:00.815Z,5.55
2019-06-08T15:12:31.859Z,3.58
2019-06-08T15:15:02.319Z,2.95
2019-06-08T15:17:32.828Z,3.67
2019-06-08T15:20:03.276Z,1.60
2019-06-08T15:22:33.954Z,3.33
2019-06-08T15:25:04.771Z,1.80
2019-06-08T15:27:35.397Z,6.87
2019-06-08T15:30:06.219Z,4.30
2019-06-08T15:32:38.685Z,2.65
2019-06-08T15:35:08.698Z,4.33
2019-06-08T15:37:40.837Z,4.35
2019-06-08T15:40:11.372Z,1.82
2019-06-08T15:42:41.935Z,3.30
2019-06-08T15:45:12.648Z,2.02
2019-06-08T15:47:43.107Z,5.12
2019-06-08T15:50:13.834Z,2.95
2019-06-08T15:52:44.317Z,1.67
2019-06-08T15:55:15.631Z,3.33
2019-06-08T15:57:47.021Z,4.92
2019-06-08T16:00:18.486Z,3.20
2019-06-08T16:02:49.005Z,3.92
2019-06-08T16:05:19.432Z,4.78
2019-06-08T16:07:52.828Z,1.92
2019-06-08T16:10:28.050Z,2.22
2019-06-08T16:12:58.978Z,4.08
2019-06-08T16:15:30.901Z,3.08
2019-06-08T16:18:01.813Z,3.60
2019-06-08T16:20:34.036Z,2.72
2019-06-08T16:23:04.539Z,9.73
2019-06-08T16:25:38.677Z,5.03
2019-06-08T16:28:07.441Z,4.78
2019-06-08T16:30:39.352Z,2.37
2019-06-08T16:33:09.962Z,3.87
2019-06-08T16:35:40.496Z,5.50
2019-06-08T16:38:10.988Z,6.40
2019-06-08T16:40:41.398Z,7.95
2019-06-08T16:43:11.927Z,6.05
2019-06-08T16:45:42.297Z,5.65
2019-06-08T16:48:12.840Z,6.35
2019-06-08T16:50:43.258Z,3.65
2019-06-08T16:53:13.763Z,6.08
2019-06-08T16:55:45.804Z,6.80
2019-06-08T16:58:16.553Z,5.17
2019-06-08T17:00:47.199Z,4.80
2019-06-08T17:03:17.647Z,6.90
2019-06-08T17:05:48.104Z,5.15
2019-06-08T17:08:18.606Z,4.70
2019-06-08T17:10:49.059Z,7.53
2019-06-08T17:13:19.599Z,7.42
2019-06-08T17:15:50.093Z,4.95
2019-06-08T17:18:20.745Z,6.87
2019-06-08T17:20:51.163Z,5.05
2019-06-08T17:23:21.691Z,4.15
2019-06-08T17:25:52.156Z,6.35
2019-06-08T17:28:22.622Z,5.37
2019-06-08T17:30:53.062Z,3.05
2019-06-08T17:33:23.528Z,4.37
2019-06-08T17:35:53.923Z,4.40
2019-06-08T17:38:24.447Z,4.87
2019-06-08T17:40:54.846Z,6.78
2019-06-08T17:43:25.356Z,7.75
2019-06-08T17:45:55.850Z,3.42
2019-06-08T17:48:26.272Z,2.90
2019-06-08T17:50:56.747Z,5.37
2019-06-08T17:53:27.153Z,4.92
2019-06-08T17:55:59.186Z,8.90
2019-06-08T17:58:29.647Z,4.50
2019-06-08T18:01:00.077Z,3.55
2019-06-08T18:03:30.548Z,7.30
2019-06-08T18:06:01.043Z,3.45
2019-06-08T18:08:31.501Z,2.05
2019-06-08T18:11:02.305Z,8.55
2019-06-08T18:13:34.036Z,6.30
2019-06-08T18:16:04.408Z,2.77
2019-06-08T18:18:37.620Z,9.05
2019-06-08T18:21:08.123Z,3.33
2019-06-08T18:23:40.390Z,4.78
2019-06-08T18:26:10.678Z,6.70
2019-06-08T18:28:42.687Z,3.15
2019-06-08T18:31:13.311Z,6.42
2019-06-08T18:33:45.687Z,8.53
2019-06-08T18:36:17.375Z,3.25
2019-06-08T18:38:48.639Z,3.55
2019-06-08T18:41:19.193Z,7.78
2019-06-08T18:43:52.530Z,4.08
2019-06-08T18:46:21.709Z,3.83
2019-06-08T18:48:52.513Z,7.33
2019-06-08T18:51:22.971Z,3.95
2019-06-08T18:54:07.180Z,4.58
2019-06-08T18:56:27.466Z,2.87
2019-06-08T18:58:58.318Z,3.92
2019-06-08T19:01:29.343Z,7.72
2019-06-08T19:03:59.769Z,5.28
2019-06-08T19:06:30.814Z,4.70
2019-06-08T19:09:01.632Z,3.05
2019-06-08T19:11:32.415Z,6.25
2019-06-08T19:14:03.359Z,4.65
2019-06-08T19:16:33.797Z,2.67
2019-06-08T19:19:04.399Z,3.87
2019-06-08T19:21:35.083Z,2.30
2019-06-08T19:24:09.621Z,3.45
2019-06-08T19:26:40.691Z,4.05
2019-06-08T19:29:09.888Z,3.90
2019-06-08T19:31:42.359Z,6.33
2019-06-08T19:34:12.403Z,4.70
2019-06-08T19:36:43.992Z,6.50
2019-06-08T19:39:14.973Z,3.52
2019-06-08T19:41:46.899Z,3.80
2019-06-08T19:44:18.346Z,4.50
2019-06-08T19:46:52.125Z,6.72
2019-06-08T19:49:21.763Z,5.37
2019-06-08T19:51:53.930Z,4.62
2019-06-08T19:54:24.179Z,4.60
2019-06-08T19:56:55.285Z,4.47
2019-06-08T19:59:27.385Z,4.08
2019-06-08T20:01:59.918Z,13.45
2019-06-08T20:04:30.642Z,5.70
2019-06-08T20:07:01.086Z,7.85
2019-06-08T20:09:31.498Z,4.95
2019-06-08T20:12:02.383Z,7.50
2019-06-08T20:14:32.978Z,4.28
2019-06-08T20:17:03.492Z,5.22
2019-06-08T20:19:33.881Z,5.37
2019-06-08T20:22:04.259Z,4.95
2019-06-08T20:24:37.530Z,7.92
2019-06-08T20:27:07.726Z,9.08
2019-06-08T20:29:38.912Z,6.92
2019-06-08T20:32:09.402Z,7.67
2019-06-08T20:34:40.135Z,9.40
2019-06-08T20:37:10.713Z,10.63
2019-06-08T20:39:56.012Z,13.18
2019-06-08T20:42:13.176Z,12.00
2019-06-08T20:44:43.982Z,10.25
2019-06-08T20:47:14.839Z,13.98
2019-06-08T20:49:46.924Z,12.35
2019-06-08T20:52:17.845Z,10.68
2019-06-08T20:54:50.457Z,9.03
2019-06-08T20:57:20.509Z,9.95
2019-06-08T20:59:53.429Z,9.93
2019-06-08T21:02:23.176Z,12.53
2019-06-08T21:04:54.909Z,9.30
2019-06-08T21:07:28.065Z,8.40
2019-06-08T21:09:58.271Z,11.05
2019-06-08T21:12:29.172Z,9.58
2019-06-08T21:14:59.591Z,8.60
2019-06-08T21:17:30.112Z,7.92
2019-06-08T21:20:00.513Z,8.90
2019-06-08T21:22:30.967Z,8.28
2019-06-08T21:25:01.382Z,10.80
2019-06-08T21:27:31.809Z,6.22
2019-06-08T21:30:11.857Z,8.88
2019-06-08T21:32:34.490Z,7.25
2019-06-08T21:35:07.673Z,17.85
2019-06-08T21:37:37.837Z,5.15
2019-06-08T21:40:08.985Z,5.67
2019-06-08T21:42:40.236Z,6.60
2019-06-08T21:45:10.983Z,6.47
2019-06-08T21:47:41.387Z,6.53
2019-06-08T21:50:12.114Z,7.80
2019-06-08T21:52:42.516Z,8.55
2019-06-08T21:55:13.046Z,4.83
2019-06-08T21:57:45.505Z,3.85
2019-06-08T22:00:35.941Z,9.35
2019-06-08T22:02:49.563Z,4.58
2019-06-08T22:05:20.100Z,5.95
2019-06-08T22:07:50.550Z,6.20
2019-06-08T22:10:20.950Z,4.55
2019-06-08T22:12:52.364Z,7.55
2019-06-08T22:15:23.976Z,15.43
2019-06-08T22:17:54.919Z,7.70
2019-06-08T22:20:27.379Z,7.92
2019-06-08T22:22:59.101Z,6.33
2019-06-08T22:25:32.639Z,9.20
2019-06-08T22:28:03.978Z,7.25
2019-06-08T22:30:39.990Z,8.10
2019-06-08T22:33:06.625Z,10.50
2019-06-08T22:35:37.458Z,9.85
2019-06-08T22:38:08.642Z,11.28
2019-06-08T22:40:39.171Z,10.43
2019-06-08T22:43:09.672Z,11.90
2019-06-08T22:45:40.141Z,16.20
2019-06-08T22:48:10.609Z,12.58
2019-06-08T22:50:40.938Z,10.98
2019-06-08T22:53:11.518Z,14.10
2019-06-08T22:55:41.911Z,10.60
2019-06-08T22:58:12.443Z,11.68
2019-06-08T23:00:52.036Z,12.90
2019-06-08T23:03:18.179Z,12.18
2019-06-08T23:05:47.747Z,9.90
2019-06-08T23:08:18.686Z,12.05
2019-06-08T23:10:48.997Z,11.60
2019-06-08T23:13:20.268Z,10.30
2019-06-08T23:15:50.659Z,11.78
2019-06-08T23:18:21.123Z,11.05
2019-06-08T23:20:51.516Z,13.38
2019-06-08T23:23:22.050Z,14.10
2019-06-08T23:25:52.453Z,8.80
2019-06-08T23:28:22.951Z,13.00
2019-06-08T23:31:05.883Z,10.70
2019-06-08T23:33:33.190Z,11.95
2019-06-08T23:38:37.409Z,12.93
2019-06-08T23:41:09.729Z,12.70
2019-06-08T23:43:39.972Z,8.00
2019-06-08T23:46:10.405Z,9.85
2019-06-08T23:48:41.238Z,9.20
2019-06-08T23:51:11.697Z,9.80
2019-06-08T23:53:42.159Z,8.30
2019-06-08T23:56:12.652Z,8.50
2019-06-08T23:58:43.029Z,7.78
